Time;durP1;ratioP1;P1;durP2;ratioP2;P2;SDS_P1;SDS_P2;PMS_P1;PMS_P2;Temp;Humidity;BMP_temperature;BMP_pressure;BME280_temperature;BME280_humidity;BME280_pressure;Samples;Min_cycle;Max_cycle;Signal;HPM_P1;HPM_P2
2021/09/01 00:01:03;;;;;;;9.60;8.00;;;15.20;81.50;;;13.89;86.33;96756.13;4993921;28;20092;-68
2021/09/01 00:03:29;;;;;;;9.68;7.82;;;15.20;81.40;;;13.85;85.67;96766.28;4991139;28;20424;-68
2021/09/01 00:05:54;;;;;;;11.35;8.57;;;15.20;81.60;;;13.80;86.00;96760.72;5009207;28;20038;-69
2021/09/01 00:08:20;;;;;;;9.80;8.80;;;15.10;81.70;;;13.76;85.72;96768.25;5009246;28;20060;-68
2021/09/01 00:10:46;;;;;;;11.10;9.15;;;15.00;81.80;;;13.72;86.33;96766.19;5008452;28;20103;-68
2021/09/01 00:13:12;;;;;;;10.35;8.93;;;15.00;82.00;;;13.69;86.00;96763.91;5009042;28;20169;-68
2021/09/01 00:15:37;;;;;;;13.48;9.45;;;15.00;82.10;;;13.64;86.01;96764.50;4991102;28;20046;-68
2021/09/01 00:18:03;;;;;;;11.73;8.75;;;14.90;82.10;;;13.61;85.58;96767.53;4974270;28;20425;-68
2021/09/01 00:20:29;;;;;;;11.38;9.00;;;14.90;82.20;;;13.58;86.37;96769.72;4989643;28;20072;-67
2021/09/01 00:22:55;;;;;;;10.48;9.43;;;14.90;82.30;;;13.55;86.15;96764.81;5002449;28;20184;-68
2021/09/01 00:25:21;;;;;;;11.77;9.38;;;14.80;82.40;;;13.52;86.90;96770.47;5006439;28;20113;-67
2021/09/01 00:27:46;;;;;;;11.02;7.75;;;14.70;82.40;;;13.47;86.47;96766.59;4974110;28;20088;-67
2021/09/01 00:30:12;;;;;;;13.50;9.85;;;14.70;82.40;;;13.43;86.70;96772.47;4984770;28;20082;-68
2021/09/01 00:32:38;;;;;;;10.40;9.27;;;14.70;82.50;;;13.37;86.63;96774.03;4993153;28;20057;-68
2021/09/01 00:35:05;;;;;;;11.70;10.38;;;14.60;82.60;;;13.34;86.82;96777.03;4991534;28;20493;-68
2021/09/01 00:37:30;;;;;;;13.57;10.73;;;14.60;82.70;;;13.30;86.54;96773.16;4975264;28;20041;-68
2021/09/01 00:39:56;;;;;;;12.48;10.73;;;14.60;82.70;;;13.26;86.84;96779.81;4972814;28;20279;-68
2021/09/01 00:42:22;;;;;;;13.05;10.75;;;14.60;82.90;;;13.24;87.36;96779.19;4992666;28;20037;-68
2021/09/01 00:44:47;;;;;;;13.00;10.82;;;14.50;83.10;;;13.21;86.59;96784.84;4991744;28;20113;-69
2021/09/01 00:47:21;;;;;;;14.30;11.15;;;14.60;83.10;;;13.17;88.28;96786.22;4981933;28;20061;-69
2021/09/01 00:49:46;;;;;;;12.07;10.73;;;14.40;83.40;;;13.14;87.28;96778.66;4976642;28;20132;-69
2021/09/01 00:52:13;;;;;;;13.98;10.65;;;14.40;83.40;;;13.11;87.89;96776.38;4980898;28;20465;-69
2021/09/01 00:54:39;;;;;;;13.65;11.30;;;14.40;83.20;;;13.06;87.24;96776.13;4975705;28;20045;-69
2021/09/01 00:57:06;;;;;;;12.63;10.90;;;14.30;82.80;;;13.00;87.44;96782.16;4990751;28;20054;-68
2021/09/01 00:59:39;;;;;;;12.35;10.73;;;14.30;82.80;;;12.98;87.57;96785.00;4994593;28;20085;-68
2021/09/01 01:02:05;;;;;;;13.73;11.07;;;14.30;82.80;;;12.96;86.78;96780.91;4984830;28;20103;-70
2021/09/01 01:04:31;;;;;;;12.02;10.30;;;14.30;82.70;;;12.94;87.07;96783.75;4994488;28;20489;-69
2021/09/01 01:07:07;;;;;;;12.57;10.60;;;14.20;82.80;;;12.91;88.14;96775.38;4976861;28;20038;-69
2021/09/01 01:09:34;;;;;;;13.15;11.05;;;14.20;82.90;;;12.87;87.52;96782.81;4989698;28;20049;-68
2021/09/01 01:12:04;;;;;;;13.27;11.07;;;14.20;83.00;;;12.84;88.59;96778.75;4974240;28;20084;-68
2021/09/01 01:14:32;;;;;;;12.83;11.33;;;14.10;83.20;;;12.82;87.79;96774.66;4991212;28;20137;-69
2021/09/01 01:16:58;;;;;;;12.27;10.68;;;14.10;83.00;;;12.79;88.01;96781.13;4974533;28;20045;-69
2021/09/01 01:19:24;;;;;;;13.93;11.25;;;14.10;82.60;;;12.74;87.68;96778.22;4976280;28;20121;-69
2021/09/01 01:21:51;;;;;;;13.68;10.77;;;14.10;82.50;;;12.71;87.36;96781.25;4998322;28;20499;-69
2021/09/01 01:24:17;;;;;;;11.93;10.07;;;14.10;82.60;;;12.70;87.87;96770.88;4989320;28;20517;-69
2021/09/01 01:26:42;;;;;;;13.55;11.25;;;14.00;82.40;;;12.66;87.13;96773.03;4990283;28;20058;-68
2021/09/01 01:29:09;;;;;;;13.85;10.95;;;13.90;82.60;;;12.62;87.49;96774.41;4973800;28;20095;-70
2021/09/01 01:31:38;;;;;;;14.02;11.73;;;13.90;82.70;;;12.61;87.84;96771.97;4989026;28;20088;-70
2021/09/01 01:34:04;;;;;;;13.52;11.32;;;13.90;82.80;;;12.56;87.44;96775.97;4974175;28;20039;-70
2021/09/01 01:36:29;;;;;;;14.48;11.18;;;13.90;82.70;;;12.55;87.43;96789.38;4987870;28;20473;-70
2021/09/01 01:38:55;;;;;;;13.82;11.40;;;13.90;82.70;;;12.52;87.40;96779.19;4976022;28;20454;-68
2021/09/01 01:41:21;;;;;;;12.93;10.85;;;13.80;82.50;;;12.49;87.65;96787.47;4987955;28;20587;-67
2021/09/01 01:43:47;;;;;;;11.43;10.27;;;13.80;82.50;;;12.46;87.36;96796.56;4968268;28;20486;-68
2021/09/01 01:46:13;;;;;;;14.25;11.65;;;13.80;82.50;;;12.44;87.42;96795.91;4981995;28;20045;-67
2021/09/01 01:48:39;;;;;;;13.50;10.75;;;13.70;82.30;;;12.40;87.72;96792.00;5008173;28;20034;-68
2021/09/01 01:51:04;;;;;;;15.65;11.25;;;13.70;82.60;;;12.39;87.68;96792.19;5008561;28;20041;-67
2021/09/01 01:53:30;;;;;;;12.88;10.48;;;13.70;82.50;;;12.36;87.68;96792.56;4974018;28;20038;-67
2021/09/01 01:55:56;;;;;;;13.05;11.27;;;13.60;82.70;;;12.33;87.73;96790.28;4975081;28;20033;-67
2021/09/01 01:58:22;;;;;;;11.90;10.30;;;13.70;82.60;;;12.31;86.75;96787.03;4974788;28;20116;-68
2021/09/01 02:00:48;;;;;;;11.75;10.52;;;13.60;82.40;;;12.28;87.08;96793.50;4981304;28;20432;-67
2021/09/01 02:03:13;;;;;;;13.90;10.32;;;13.60;82.50;;;12.26;87.34;96793.66;4975663;28;20400;-68
2021/09/01 02:05:39;;;;;;;12.40;10.55;;;13.60;82.50;;;12.23;87.48;96794.03;4957276;28;20036;-67
2021/09/01 02:08:05;;;;;;;12.77;11.02;;;13.60;82.50;;;12.21;87.53;96792.56;4991242;28;20113;-68
2021/09/01 02:10:31;;;;;;;12.07;10.77;;;13.60;82.40;;;12.17;87.47;96792.09;4991725;28;20038;-68
2021/09/01 02:12:57;;;;;;;14.02;11.50;;;13.50;82.60;;;12.15;87.72;96794.09;4985894;28;20022;-68
2021/09/01 02:15:23;;;;;;;12.40;10.73;;;13.40;82.70;;;12.12;87.82;96789.19;5001756;28;20064;-68
2021/09/01 02:17:48;;;;;;;13.10;10.80;;;13.40;83.00;;;12.10;87.45;96791.19;4976720;28;20426;-68
2021/09/01 02:20:15;;;;;;;15.50;11.75;;;13.40;82.90;;;12.07;87.66;96796.84;4988133;28;20041;-67
2021/09/01 02:22:41;;;;;;;16.30;11.80;;;13.40;83.00;;;12.05;87.56;96787.47;5004700;28;20079;-68
2021/09/01 02:25:08;;;;;;;13.52;12.13;;;13.40;83.00;;;12.01;87.98;96789.66;4996873;28;20037;-68
2021/09/01 02:27:34;;;;;;;35.63;28.05;;;13.30;83.00;;;12.00;88.08;96795.94;4986607;28;20492;-68
2021/09/01 02:30:00;;;;;;;33.90;28.45;;;13.40;83.30;;;11.98;88.53;96787.38;4974012;28;20056;-68
2021/09/01 02:32:25;;;;;;;29.45;22.50;;;13.40;83.50;;;12.00;88.26;96795.13;4973577;28;20046;-67
2021/09/01 02:34:51;;;;;;;17.70;15.80;;;13.40;83.50;;;11.99;88.88;96794.28;4977340;28;20373;-67
2021/09/01 02:37:17;;;;;;;20.92;18.75;;;13.30;83.90;;;11.98;88.39;96803.19;4971917;28;20042;-67
2021/09/01 02:39:43;;;;;;;52.63;42.90;;;13.30;83.40;;;11.97;88.48;96801.53;4974226;28;20032;-68
2021/09/01 02:42:08;;;;;;;37.53;30.58;;;13.30;83.40;;;11.96;88.38;96797.28;4998182;28;20034;-67
2021/09/01 02:44:34;;;;;;;24.17;21.58;;;13.30;83.30;;;11.94;88.32;96804.56;5007142;28;20048;-68
2021/09/01 02:47:00;;;;;;;16.50;14.82;;;13.30;83.30;;;11.91;88.01;96797.00;4976875;28;20496;-68
2021/09/01 02:49:26;;;;;;;15.75;14.07;;;13.30;83.10;;;11.90;88.14;96800.63;4972584;28;20505;-68
2021/09/01 02:51:52;;;;;;;15.10;13.40;;;13.30;83.10;;;11.88;88.43;96800.81;4999940;28;20060;-67
2021/09/01 02:54:17;;;;;;;16.17;14.20;;;13.30;82.90;;;11.87;88.51;96801.00;4984929;28;20072;-67
2021/09/01 02:56:43;;;;;;;14.48;12.98;;;13.30;83.00;;;11.85;88.75;96803.81;4977848;28;20038;-68
2021/09/01 02:59:09;;;;;;;15.73;13.95;;;13.30;82.90;;;11.85;88.26;96805.63;5005546;28;20036;-67
2021/09/01 03:01:35;;;;;;;15.23;13.60;;;13.30;82.80;;;11.83;88.51;96807.63;4998971;28;20120;-68
2021/09/01 03:04:00;;;;;;;15.68;13.88;;;13.20;83.00;;;11.82;87.95;96808.63;5003278;28;20030;-68
2021/09/01 03:06:26;;;;;;;14.43;12.90;;;13.20;83.10;;;11.79;88.45;96806.38;4990429;28;20087;-68
2021/09/01 03:08:52;;;;;;;17.92;14.90;;;13.20;82.90;;;11.76;89.26;96809.28;4988478;28;20120;-68
2021/09/01 03:11:18;;;;;;;24.48;21.50;;;13.20;82.90;;;11.74;88.06;96800.75;4983014;28;20061;-69
2021/09/01 03:13:43;;;;;;;20.65;18.45;;;13.10;82.80;;;11.72;87.85;96800.94;4982510;28;20080;-68
2021/09/01 03:16:09;;;;;;;20.08;17.98;;;13.10;82.70;;;11.70;87.95;96802.94;4984871;28;20069;-68
2021/09/01 03:18:35;;;;;;;24.80;20.73;;;13.10;82.60;;;11.69;88.46;96811.84;4982796;28;20113;-67
2021/09/01 03:21:01;;;;;;;18.27;15.00;;;13.10;82.70;;;11.67;88.31;96808.56;5003254;28;20117;-68
2021/09/01 03:23:26;;;;;;;17.33;14.60;;;13.10;82.40;;;11.64;88.60;96812.38;4976905;28;20165;-68
2021/09/01 03:25:52;;;;;;;18.08;14.93;;;13.10;82.40;;;11.62;87.84;96803.84;4985343;28;20076;-67
2021/09/01 03:28:18;;;;;;;14.43;12.93;;;13.10;82.50;;;11.61;88.40;96807.47;4975290;28;20038;-67
2021/09/01 03:30:44;;;;;;;16.02;13.68;;;13.00;82.70;;;11.59;88.47;96804.19;4987188;28;20518;-67
2021/09/01 03:33:09;;;;;;;16.13;14.10;;;13.00;82.90;;;11.58;87.90;96807.81;4987941;28;20132;-67
2021/09/01 03:35:35;;;;;;;25.00;14.05;;;12.90;83.10;;;11.56;88.68;96809.81;4988349;28;20168;-68
2021/09/01 03:38:01;;;;;;;15.10;12.77;;;12.90;83.20;;;11.53;88.42;96815.41;4973345;28;20149;-67
2021/09/01 03:40:27;;;;;;;16.08;12.45;;;12.90;83.20;;;11.50;88.27;96813.13;4972737;28;20529;-67
2021/09/01 03:42:52;;;;;;;56.67;20.25;;;12.80;83.10;;;11.44;88.70;96813.84;5008535;28;20457;-68
2021/09/01 03:45:18;;;;;;;41.03;24.13;;;12.70;83.30;;;11.40;88.82;96815.22;4973443;28;20121;-67
2021/09/01 03:47:44;;;;;;;30.23;22.52;;;12.70;83.50;;;11.36;88.45;96816.56;4959579;28;20437;-67
2021/09/01 03:50:11;;;;;;;25.40;20.45;;;12.70;83.50;;;11.33;89.19;96814.28;4988550;28;20453;-68
2021/09/01 03:52:37;;;;;;;22.83;18.52;;;12.70;83.50;;;11.29;88.48;96813.78;4973750;28;20528;-67
2021/09/01 03:55:07;;;;;;;27.40;17.30;;;12.70;83.50;;;11.26;89.32;96808.06;5021645;28;20041;-68
2021/09/01 03:57:33;;;;;;;19.92;15.80;;;12.70;83.60;;;11.23;89.31;96813.69;4988136;28;20041;-67
2021/09/01 03:59:59;;;;;;;16.80;14.50;;;12.70;83.60;;;11.21;89.07;96815.69;4986494;28;20038;-68
2021/09/01 04:02:25;;;;;;;17.85;14.55;;;12.60;83.60;;;11.20;89.10;96814.03;4987634;28;20052;-68
2021/09/01 04:04:51;;;;;;;74.53;13.38;;;12.60;83.60;;;11.18;89.35;96819.47;4991627;28;20436;-68
2021/09/01 04:07:16;;;;;;;44.58;13.05;;;12.60;84.00;;;11.14;89.02;96826.09;4989953;28;20550;-67
2021/09/01 04:09:42;;;;;;;49.75;12.43;;;12.50;84.00;;;11.10;89.23;96830.06;4971624;28;20751;-68
2021/09/01 04:12:08;;;;;;;16.50;12.20;;;12.50;84.00;;;11.10;89.34;96826.63;4972221;28;20072;-68
2021/09/01 04:14:34;;;;;;;14.63;12.27;;;12.50;83.90;;;11.08;89.33;96826.78;4973363;28;20072;-68
2021/09/01 04:16:59;;;;;;;13.15;11.45;;;12.50;83.90;;;11.07;89.08;96826.94;4987783;28;20125;-67
2021/09/01 04:19:25;;;;;;;12.20;10.90;;;12.50;83.90;;;11.07;89.56;96829.56;4990679;28;20120;-68
2021/09/01 04:21:51;;;;;;;12.57;11.23;;;12.50;83.70;;;11.04;89.09;96825.47;4991074;28;20096;-67
2021/09/01 04:24:17;;;;;;;20.58;11.23;;;12.50;83.50;;;11.04;89.64;96830.75;4991409;28;20547;-68
2021/09/01 04:26:42;;;;;;;12.65;10.57;;;12.50;83.20;;;11.02;89.14;96828.28;4984933;28;20121;-68
2021/09/01 04:29:08;;;;;;;11.77;10.27;;;12.50;83.30;;;11.00;89.39;96827.66;4989823;28;20041;-68
2021/09/01 04:31:34;;;;;;;11.25;10.13;;;12.40;83.20;;;10.99;89.13;96833.09;4989260;28;20073;-67
2021/09/01 04:33:59;;;;;;;10.57;9.48;;;12.40;83.20;;;10.97;88.76;96835.06;4973728;28;20065;-66
2021/09/01 04:36:25;;;;;;;10.48;9.48;;;12.40;83.60;;;10.97;88.63;96829.81;4970741;28;20065;-66
2021/09/01 04:38:51;;;;;;;13.35;10.52;;;12.40;83.40;;;10.97;89.73;96830.63;5008027;28;20050;-67
2021/09/01 04:41:17;;;;;;;12.60;11.30;;;12.30;83.90;;;10.95;89.14;96827.34;4989263;28;20124;-67
2021/09/01 04:43:42;;;;;;;16.77;11.35;;;12.40;84.00;;;10.94;89.54;96833.63;4987426;28;20026;-67
2021/09/01 04:46:08;;;;;;;24.33;13.13;;;12.40;84.10;;;10.94;89.69;96832.78;4975566;28;20061;-67
2021/09/01 04:48:34;;;;;;;16.67;12.77;;;12.40;84.10;;;10.92;89.52;96837.41;4993714;28;20134;-67
2021/09/01 04:51:00;;;;;;;16.08;11.95;;;12.30;84.10;;;10.91;90.00;96836.59;4968139;28;20408;-67
2021/09/01 04:53:25;;;;;;;14.80;11.60;;;12.40;84.00;;;10.90;89.99;96834.97;4973503;28;20168;-67
2021/09/01 04:55:51;;;;;;;16.58;11.05;;;12.40;84.10;;;10.92;89.96;96829.53;4976732;28;20323;-66
2021/09/01 04:58:17;;;;;;;15.60;9.68;;;12.40;84.30;;;10.93;89.72;96839.88;4981906;28;20116;-67
2021/09/01 05:00:43;;;;;;;12.45;8.65;;;12.40;84.30;;;10.93;90.31;96839.88;5007879;28;21841;-67
2021/09/01 05:03:08;;;;;;;22.88;8.27;;;12.40;84.10;;;10.93;90.34;96845.13;4972958;28;20062;-67
2021/09/01 05:05:34;;;;;;;10.43;7.80;;;12.50;84.00;;;10.95;90.20;96837.88;4998535;28;20093;-67
2021/09/01 05:08:00;;;;;;;8.40;7.60;;;12.50;84.00;;;10.96;90.54;96839.53;5001676;28;20061;-66
2021/09/01 05:10:26;;;;;;;18.38;8.73;;;12.50;84.10;;;10.98;89.75;96836.72;4976607;28;20037;-68
2021/09/01 05:12:51;;;;;;;10.93;8.05;;;12.50;84.10;;;11.01;90.13;96836.38;4976249;28;20034;-68
2021/09/01 05:15:19;;;;;;;25.60;8.32;;;12.60;84.00;;;11.01;90.54;96846.91;4973190;28;20125;-67
2021/09/01 05:17:45;;;;;;;56.28;8.38;;;12.50;83.80;;;11.01;89.81;96842.44;4953660;28;20034;-67
2021/09/01 05:20:11;;;;;;;11.75;8.32;;;12.50;84.00;;;11.01;90.59;96846.91;4987044;28;20026;-67
2021/09/01 05:22:37;;;;;;;31.38;8.90;;;12.50;84.20;;;11.00;90.30;96851.34;4992880;28;20034;-67
2021/09/01 05:25:05;;;;;;;29.75;8.23;;;12.50;84.20;;;11.01;90.53;96860.88;5008957;28;20099;-68
2021/09/01 05:27:33;;;;;;;8.30;7.22;;;12.50;84.20;;;11.03;91.14;96855.44;5005608;28;20048;-67
2021/09/01 05:29:59;;;;;;;17.40;7.20;;;12.60;84.30;;;11.02;90.80;96865.16;5009603;28;20057;-68
2021/09/01 05:32:27;;;;;;;7.78;7.07;;;12.50;84.20;;;11.04;90.14;96863.16;4994770;28;20081;-68
2021/09/01 05:34:58;;;;;;;8.15;7.03;;;12.60;84.00;;;11.09;91.14;96865.31;4989765;28;20034;-67
2021/09/01 05:37:24;;;;;;;7.97;7.25;;;12.60;83.80;;;11.12;91.04;96869.41;4976588;28;20421;-67
2021/09/01 05:39:52;;;;;;;7.40;6.70;;;12.70;83.80;;;11.17;91.15;96864.41;5000388;28;20061;-67
2021/09/01 05:42:23;;;;;;;8.35;7.47;;;12.80;83.30;;;11.21;90.89;96868.34;4979313;28;20486;-67
2021/09/01 05:44:49;;;;;;;7.95;7.15;;;12.90;83.20;;;11.24;90.66;96862.72;5005395;28;20106;-66
2021/09/01 05:47:16;;;;;;;8.13;7.28;;;12.90;83.30;;;11.30;90.95;96869.91;4982928;28;20073;-67
2021/09/01 05:49:45;;;;;;;8.07;7.32;;;13.10;82.90;;;11.35;90.85;96865.78;4986414;28;21974;-67
2021/09/01 05:52:11;;;;;;;7.95;7.20;;;13.10;82.80;;;11.40;90.74;96867.06;4969698;28;20628;-67
2021/09/01 05:54:42;;;;;;;10.20;9.23;;;13.10;82.90;;;11.47;90.55;96857.47;4991360;28;20109;-68
2021/09/01 05:57:11;;;;;;;9.57;7.85;;;13.20;82.80;;;11.53;90.66;96857.56;5005864;28;20038;-70
2021/09/01 05:59:50;;;;;;;10.30;9.30;;;13.30;82.60;;;11.55;90.42;96850.34;5001136;28;20509;-67
2021/09/01 06:02:35;;;;;;;18.75;9.07;;;13.20;82.70;;;11.52;90.65;96853.31;5016969;28;20030;-70
2021/09/01 06:05:02;;;;;;;8.93;8.13;;;13.10;83.10;;;11.60;90.63;96852.44;4997653;28;20029;-71
2021/09/01 06:07:28;;;;;;;9.20;8.30;;;13.40;83.20;;;11.72;91.60;96866.00;5028063;28;20042;-70
2021/09/01 06:09:54;;;;;;;11.75;9.10;;;13.60;82.70;;;11.82;91.55;96869.25;4992617;28;20468;-67
2021/09/01 06:12:20;;;;;;;22.20;9.35;;;13.80;82.20;;;11.91;90.90;96861.09;4983417;28;20131;-69
2021/09/01 06:14:46;;;;;;;12.00;10.80;;;13.80;81.90;;;11.99;90.70;96867.28;4995963;28;20113;-67
2021/09/01 06:17:11;;;;;;;12.57;10.10;;;14.00;82.10;;;12.09;90.90;96868.69;4992408;28;20112;-67
2021/09/01 06:19:38;;;;;;;12.32;10.90;;;14.10;81.80;;;12.17;90.74;96865.97;4995766;28;20124;-67
2021/09/01 06:22:04;;;;;;;11.13;9.73;;;14.10;81.60;;;12.26;90.61;96874.63;4975984;28;20489;-67
2021/09/01 06:24:33;;;;;;;13.00;11.65;;;14.20;81.70;;;12.34;90.54;96881.63;4972863;28;20374;-67
2021/09/01 06:27:00;;;;;;;12.93;11.63;;;14.20;81.20;;;12.42;90.09;96874.44;4960493;28;20438;-67
2021/09/01 06:29:26;;;;;;;15.18;12.98;;;14.40;81.20;;;12.48;89.93;96883.47;4988018;28;20398;-67
2021/09/01 06:31:51;;;;;;;15.80;12.98;;;14.40;80.80;;;12.52;89.30;96879.47;4976090;28;20034;-68
2021/09/01 06:34:17;;;;;;;13.95;12.30;;;14.30;80.50;;;12.56;89.75;96897.38;4985715;28;20053;-67
2021/09/01 06:36:43;;;;;;;12.82;11.52;;;14.50;81.10;;;12.56;89.83;96886.81;4981489;28;20042;-68
2021/09/01 06:39:09;;;;;;;13.55;11.70;;;14.30;81.20;;;12.58;89.71;96890.09;4996999;28;20068;-67
2021/09/01 06:41:34;;;;;;;12.90;11.32;;;14.40;81.60;;;12.62;89.59;96880.00;4982190;28;20029;-67
2021/09/01 06:44:00;;;;;;;13.02;11.45;;;14.50;81.70;;;12.68;90.18;96887.22;4995551;28;20068;-67
2021/09/01 06:46:26;;;;;;;12.40;11.18;;;14.60;81.60;;;12.75;89.98;96880.19;5004825;28;20065;-67
2021/09/01 06:48:51;;;;;;;12.50;10.63;;;14.60;81.60;;;12.83;89.69;96876.63;4989516;28;20037;-67
2021/09/01 06:51:17;;;;;;;13.63;9.68;;;14.80;81.50;;;12.94;90.31;96885.91;4979174;28;20112;-68
2021/09/01 06:53:43;;;;;;;12.05;10.85;;;15.00;81.50;;;13.02;90.13;96878.69;4957929;28;20128;-68
2021/09/01 06:56:09;;;;;;;12.43;9.93;;;15.00;81.50;;;13.13;90.04;96878.22;5011898;28;20493;-67
2021/09/01 06:58:35;;;;;;;10.75;9.63;;;15.10;81.00;;;13.23;90.17;96871.84;4995143;28;20513;-68
2021/09/01 07:01:02;;;;;;;11.20;10.00;;;15.30;80.20;;;13.30;89.90;96881.47;5004538;28;20057;-67
2021/09/01 07:03:28;;;;;;;12.32;9.55;;;15.30;80.50;;;13.42;89.62;96887.91;4955778;28;20038;-67
2021/09/01 07:05:53;;;;;;;10.27;9.20;;;15.40;80.10;;;13.55;89.54;96887.22;4977045;28;20035;-68
2021/09/01 07:08:22;;;;;;;12.65;10.10;;;15.70;80.10;;;13.69;89.40;96891.66;4995037;28;20027;-66
2021/09/01 07:10:47;;;;;;;11.07;9.35;;;15.90;79.70;;;13.86;89.09;96904.63;5010175;28;20034;-69
2021/09/01 07:13:13;;;;;;;18.52;14.07;;;16.10;78.00;;;14.05;89.15;96904.78;5011165;28;20032;-69
2021/09/01 07:15:39;;;;;;;15.30;13.63;;;16.40;78.10;;;14.23;89.07;96908.78;4985227;28;20501;-69
2021/09/01 07:18:05;;;;;;;14.65;12.55;;;16.50;77.70;;;14.37;87.89;96913.19;4992727;28;20046;-69
2021/09/01 07:20:31;;;;;;;13.00;11.02;;;16.70;76.20;;;14.53;87.76;96914.75;4995912;28;20038;-68
2021/09/01 07:22:56;;;;;;;12.95;10.68;;;16.80;76.50;;;14.66;87.07;96910.34;4984552;28;20034;-70
2021/09/01 07:25:22;;;;;;;18.50;11.88;;;16.90;75.10;;;14.79;86.23;96920.22;4996679;28;20092;-68
2021/09/01 07:27:48;;;;;;;11.45;10.25;;;17.10;74.60;;;14.91;85.95;96915.16;5001614;28;20056;-67
2021/09/01 07:30:14;;;;;;;12.07;9.50;;;17.30;72.80;;;15.10;85.30;96925.03;5003462;28;20033;-71
2021/09/01 07:32:39;;;;;;;12.25;9.27;;;17.70;72.20;;;15.29;84.64;96915.53;4989558;28;20046;-69
2021/09/01 07:35:06;;;;;;;9.73;8.43;;;17.90;71.10;;;15.46;84.43;96924.78;4965219;28;20025;-70
2021/09/01 07:37:32;;;;;;;8.45;7.55;;;18.00;71.10;;;15.57;83.83;96932.16;4991027;28;20037;-69
2021/09/01 07:39:57;;;;;;;11.25;8.85;;;18.00;70.90;;;15.65;83.67;96922.44;4978363;28;20046;-68
2021/09/01 07:42:23;;;;;;;10.05;8.30;;;17.90;71.10;;;15.71;82.62;96933.03;4990841;28;20065;-67
2021/09/01 07:44:49;;;;;;;10.35;8.80;;;18.00;70.50;;;15.78;82.17;96931.22;5024147;28;20064;-69
2021/09/01 07:47:15;;;;;;;11.57;10.13;;;18.10;70.40;;;15.87;82.32;96927.38;4992216;28;20069;-69
2021/09/01 07:49:41;;;;;;;16.52;13.38;;;18.30;70.00;;;15.99;81.91;96930.22;5006169;28;20429;-68
2021/09/01 07:52:07;;;;;;;12.82;10.43;;;18.50;69.30;;;16.16;80.91;96935.97;5010079;28;20103;-68
2021/09/01 07:54:34;;;;;;;10.48;8.50;;;18.90;68.30;;;16.38;80.80;96940.06;4978807;28;20034;-67
2021/09/01 07:56:59;;;;;;;11.10;9.40;;;19.10;67.80;;;16.58;80.23;96939.25;4995734;28;20037;-68
2021/09/01 07:59:25;;;;;;;14.27;10.80;;;19.30;66.40;;;16.77;79.97;96946.41;4994969;28;20068;-68
2021/09/01 08:01:51;;;;;;;11.57;7.93;;;19.60;64.70;;;16.99;78.83;96942.47;5009788;28;20057;-67
2021/09/01 08:04:17;;;;;;;8.90;7.57;;;19.90;63.70;;;17.26;78.43;96937.06;4993974;28;20437;-67
2021/09/01 08:06:42;;;;;;;9.32;6.63;;;20.50;63.70;;;17.61;78.61;96934.84;5014395;28;20111;-67
2021/09/01 08:09:08;;;;;;;7.80;6.63;;;20.90;61.90;;;17.98;77.36;96939.38;5012000;28;20404;-74
2021/09/01 08:11:34;;;;;;;7.72;6.35;;;21.30;59.90;;;18.32;75.74;96938.09;5011843;28;20073;-69
2021/09/01 08:14:00;;;;;;;7.78;6.28;;;21.70;57.10;;;18.69;75.27;96946.22;4997400;28;20121;-69
2021/09/01 08:16:27;;;;;;;7.38;6.18;;;22.30;56.90;;;19.03;74.29;96946.72;4979068;28;20065;-68
2021/09/01 08:18:53;;;;;;;7.55;6.28;;;22.50;56.60;;;19.33;73.70;96944.94;4991701;28;20038;-70
2021/09/01 08:21:20;;;;;;;8.45;6.30;;;22.70;54.60;;;19.63;71.72;96945.00;4958807;28;20034;-69
2021/09/01 08:23:46;;;;;;;8.27;6.35;;;23.00;54.00;;;19.87;71.47;96945.91;4975970;28;20038;-70
2021/09/01 08:26:11;;;;;;;8.73;5.93;;;23.10;53.20;;;20.07;71.18;96941.09;4959462;28;20080;-69
2021/09/01 08:28:37;;;;;;;12.18;9.85;;;23.30;54.00;;;20.30;70.56;96947.53;4962593;28;20111;-69
2021/09/01 08:31:03;;;;;;;10.75;8.80;;;23.50;53.20;;;20.50;69.47;96948.06;4994950;28;20066;-69
2021/09/01 08:33:29;;;;;;;7.88;6.03;;;23.60;52.20;;;20.71;68.31;96944.84;5010255;28;20048;-69
2021/09/01 08:35:54;;;;;;;9.90;6.20;;;23.60;50.90;;;20.89;67.84;96943.09;5014472;28;20601;-68
2021/09/01 08:38:20;;;;;;;8.10;5.72;;;23.70;51.80;;;20.93;67.38;96939.72;5014434;28;20112;-69
2021/09/01 08:40:47;;;;;;;6.60;5.43;;;23.80;51.50;;;21.05;66.47;96942.41;5011278;28;20083;-69
2021/09/01 08:43:13;;;;;;;7.93;5.93;;;24.10;51.40;;;21.25;66.17;96947.38;4977943;28;20047;-68
2021/09/01 08:45:39;;;;;;;7.90;5.30;;;24.10;48.90;;;21.48;65.66;96949.19;4991342;28;20050;-68
2021/09/01 08:48:04;;;;;;;6.40;4.82;;;24.50;49.90;;;21.73;64.42;96946.19;4975445;28;20113;-68
2021/09/01 08:50:30;;;;;;;6.72;5.55;;;24.70;47.00;;;21.96;64.05;96952.28;4974843;28;20520;-69
2021/09/01 08:52:56;;;;;;;7.40;5.45;;;25.00;46.30;;;22.21;62.08;96951.97;5009220;28;20062;-69
2021/09/01 08:55:22;;;;;;;10.00;5.38;;;25.20;45.40;;;22.50;61.68;96947.34;5026476;28;20147;-68
2021/09/01 08:57:47;;;;;;;8.90;4.90;;;25.50;45.00;;;22.72;61.19;96946.59;4994614;28;20109;-69
2021/09/01 09:00:14;;;;;;;8.60;5.03;;;25.60;44.60;;;22.94;59.58;96942.13;4993561;28;20107;-69
2021/09/01 09:02:40;;;;;;;5.75;4.25;;;26.00;42.30;;;23.31;59.07;96944.22;5009013;28;20033;-68
2021/09/01 09:05:08;;;;;;;7.45;4.57;;;26.60;42.30;;;23.64;56.81;96933.41;5030540;28;20507;-68
2021/09/01 09:07:53;;;;;;;6.20;4.32;;;26.90;41.00;;;23.82;50.17;96934.94;4996936;28;20063;-68
2021/09/01 09:10:31;;;;;;;6.63;4.65;;;26.80;39.00;;;24.04;50.67;96938.41;4980216;28;20247;-69
2021/09/01 09:12:59;;;;;;;11.93;5.25;;;26.90;39.00;;;24.31;54.15;96930.34;4994835;28;20084;-68
2021/09/01 09:15:25;;;;;;;8.27;5.13;;;27.50;39.50;;;24.65;54.58;96932.75;4993299;28;20034;-68
2021/09/01 09:17:50;;;;;;;10.68;3.67;;;27.80;39.20;;;24.94;54.03;96925.97;4978039;28;20105;-69
2021/09/01 09:20:16;;;;;;;5.65;4.40;;;28.10;38.50;;;25.18;52.96;96930.97;4992086;28;20525;-69
2021/09/01 09:22:42;;;;;;;8.07;4.32;;;28.20;37.30;;;25.34;52.04;96929.94;5010000;28;20524;-69
2021/09/01 09:25:13;;;;;;;7.07;4.28;;;28.20;37.00;;;25.54;50.75;96930.03;4994180;28;20054;-68
2021/09/01 09:28:05;;;;;;;5.70;4.50;;;28.50;36.50;;;25.67;45.50;96922.53;4993429;28;20045;-69
2021/09/01 09:30:42;;;;;;;13.20;6.55;;;28.20;36.00;;;25.91;44.60;96923.72;4997611;28;20056;-69
2021/09/01 09:33:15;;;;;;;12.23;5.85;;;28.70;35.70;;;26.11;44.60;96923.75;5010422;28;20500;-69
2021/09/01 09:35:58;;;;;;;8.15;5.38;;;29.10;35.30;;;26.40;42.47;96899.78;5011267;28;20096;-69
2021/09/01 09:38:42;;;;;;;6.88;3.70;;;29.30;33.90;;;26.64;43.29;96907.31;4999660;28;20054;-69
2021/09/01 09:41:20;;;;;;;6.90;4.05;;;29.80;34.80;;;26.91;43.18;96907.81;5003664;28;20037;-70
2021/09/01 09:43:46;;;;;;;5.50;4.22;;;30.10;34.50;;;27.08;47.34;96916.47;5029416;28;20028;-70
2021/09/01 09:46:12;;;;;;;5.55;3.72;;;29.90;34.80;;;26.93;46.83;96923.75;5001560;28;20429;-70
2021/09/01 09:48:40;;;;;;;6.35;4.38;;;29.10;35.20;;;26.52;45.10;96918.41;4980859;28;20105;-71
2021/09/01 09:51:09;;;;;;;5.95;4.38;;;28.20;36.60;;;26.00;45.93;96934.78;4978069;28;20033;-69
2021/09/01 09:53:39;;;;;;;6.63;4.00;;;27.50;37.50;;;25.44;43.66;96932.69;5024359;28;20033;-68
2021/09/01 09:56:19;;;;;;;5.78;3.90;;;26.70;38.00;;;24.90;47.19;96930.25;4999700;28;20034;-69
2021/09/01 09:58:46;;;;;;;5.10;3.77;;;26.20;40.40;;;24.38;47.56;96927.41;4982135;28;20022;-73
2021/09/01 10:01:13;;;;;;;4.72;3.42;;;25.70;41.30;;;23.95;48.21;96925.66;5012617;28;20021;-73
2021/09/01 10:03:39;;;;;;;6.50;4.22;;;25.30;42.00;;;23.55;48.97;96929.50;4992224;28;20042;-73
2021/09/01 10:06:07;;;;;;;5.93;4.60;;;24.90;43.20;;;23.20;49.01;96933.38;4993973;28;20472;-74
2021/09/01 10:08:34;;;;;;;7.35;4.30;;;24.60;44.70;;;22.83;49.71;96926.94;4992491;28;20053;-73